createdAt,value
2023-02-22T00:02:27.215Z,4.84
2023-02-22T00:04:55.967Z,4.84
2023-02-22T00:07:24.974Z,4.95
2023-02-22T00:09:53.469Z,4.85
2023-02-22T00:12:23.224Z,4.81
2023-02-22T00:14:51.893Z,4.75
2023-02-22T00:17:20.920Z,4.98
2023-02-22T00:19:50.638Z,4.88
2023-02-22T00:22:20.662Z,4.95
2023-02-22T00:24:50.445Z,4.93
2023-02-22T00:27:18.936Z,4.87
2023-02-22T00:29:49.177Z,4.84
2023-02-22T00:32:17.685Z,4.87
2023-02-22T00:34:46.063Z,4.96
2023-02-22T00:37:14.542Z,4.92
2023-02-22T00:39:43.090Z,4.68
2023-02-22T00:42:11.535Z,4.83
2023-02-22T00:44:40.078Z,4.85
2023-02-22T00:47:10.559Z,4.63
2023-02-22T00:49:39.284Z,4.82
2023-02-22T00:52:09.230Z,4.76
2023-02-22T00:54:37.756Z,4.61
2023-02-22T00:57:06.150Z,4.70
2023-02-22T00:59:34.662Z,4.82
2023-02-22T01:02:03.166Z,4.77
2023-02-22T01:04:33.149Z,4.59
2023-02-22T01:07:01.607Z,4.62
2023-02-22T01:09:30.053Z,4.51
2023-02-22T01:11:58.810Z,4.68
2023-02-22T01:14:28.237Z,4.46
2023-02-22T01:16:57.847Z,4.40
2023-02-22T01:19:26.321Z,4.69
2023-02-22T01:21:56.198Z,4.73
2023-02-22T01:24:24.567Z,4.77
2023-02-22T01:26:55.290Z,4.69
2023-02-22T01:29:23.740Z,4.82
2023-02-22T01:31:55.617Z,4.72
2023-02-22T01:34:26.013Z,4.55
2023-02-22T01:36:56.734Z,4.46
2023-02-22T01:39:25.327Z,4.32
2023-02-22T01:41:54.609Z,4.42
2023-02-22T01:44:30.805Z,4.43
2023-02-22T01:47:03.199Z,4.53
2023-02-22T01:49:36.660Z,4.47
2023-02-22T01:52:10.692Z,4.66
2023-02-22T01:54:43.458Z,4.64
2023-02-22T01:57:19.058Z,4.75
2023-02-22T01:59:52.545Z,4.77
2023-02-22T02:02:25.342Z,4.61
2023-02-22T02:04:57.447Z,4.79
2023-02-22T02:07:29.903Z,4.81
2023-02-22T02:10:01.388Z,4.62
2023-02-22T02:12:33.670Z,4.79
2023-02-22T02:15:22.857Z,4.78
2023-02-22T02:17:56.593Z,4.53
2023-02-22T02:20:35.192Z,4.68
2023-02-22T02:23:25.478Z,4.70
2023-02-22T02:26:30.328Z,4.59
2023-02-22T02:29:28.767Z,4.61
2023-02-22T02:32:23.650Z,4.53
2023-02-22T02:35:03.088Z,4.64
2023-02-22T02:37:42.210Z,4.57
2023-02-22T02:40:21.852Z,4.68
2023-02-22T02:43:01.290Z,4.58
2023-02-22T02:45:38.337Z,4.77
2023-02-22T02:48:13.964Z,4.64
2023-02-22T02:50:48.013Z,4.65
2023-02-22T02:53:22.288Z,4.68
2023-02-22T02:55:51.515Z,4.65
2023-02-22T02:58:24.333Z,4.62
2023-02-22T03:00:59.771Z,4.60
2023-02-22T03:04:08.285Z,4.48
2023-02-22T03:07:07.083Z,4.56
2023-02-22T03:09:49.910Z,4.36
2023-02-22T03:12:34.368Z,4.60
2023-02-22T03:15:21.877Z,4.62
2023-02-22T03:18:02.292Z,4.40
2023-02-22T03:20:43.260Z,4.62
2023-02-22T03:23:24.783Z,4.44
2023-02-22T03:25:59.400Z,4.54
2023-02-22T03:28:31.285Z,4.51
2023-02-22T03:31:07.148Z,4.41
2023-02-22T03:33:43.662Z,4.32
2023-02-22T03:36:17.999Z,4.48
2023-02-22T03:38:48.897Z,4.46
2023-02-22T03:41:24.046Z,4.48
2023-02-22T03:43:59.711Z,4.43
2023-02-22T03:46:30.607Z,4.38
2023-02-22T03:49:06.494Z,4.49
2023-02-22T03:51:40.750Z,4.57
2023-02-22T03:54:16.429Z,4.19
2023-02-22T03:56:54.355Z,4.44
2023-02-22T03:59:27.749Z,4.42
2023-02-22T04:01:57.498Z,4.35
2023-02-22T04:04:26.848Z,4.30
2023-02-22T04:06:57.038Z,4.44
2023-02-22T04:09:26.335Z,4.33
2023-02-22T04:11:54.953Z,4.49
2023-02-22T04:14:23.975Z,4.49
2023-02-22T04:16:52.639Z,4.54
2023-02-22T04:19:21.146Z,4.54
2023-02-22T04:21:51.382Z,4.48
2023-02-22T04:24:25.625Z,4.48
2023-02-22T04:26:55.695Z,4.36
2023-02-22T04:29:24.866Z,4.29
2023-02-22T04:31:53.301Z,4.23
2023-02-22T04:34:22.018Z,4.41
2023-02-22T04:36:50.885Z,4.36
2023-02-22T04:39:19.539Z,4.26
2023-02-22T04:41:49.710Z,4.31
2023-02-22T04:44:18.394Z,4.15
2023-02-22T04:46:47.081Z,4.31
2023-02-22T04:49:17.315Z,4.08
2023-02-22T04:51:47.335Z,4.25
2023-02-22T04:54:17.664Z,4.20
2023-02-22T04:56:50.022Z,4.27
2023-02-22T04:59:19.885Z,4.25
2023-02-22T05:01:55.143Z,4.26
2023-02-22T05:04:24.812Z,4.29
2023-02-22T05:06:55.076Z,4.37
2023-02-22T05:09:23.645Z,4.34
2023-02-22T05:11:53.478Z,4.27
2023-02-22T05:14:22.869Z,4.24
2023-02-22T05:16:51.332Z,4.39
2023-02-22T05:19:19.718Z,4.38
2023-02-22T05:21:48.085Z,4.34
2023-02-22T05:24:16.906Z,4.08
2023-02-22T05:26:46.311Z,4.31
2023-02-22T05:29:16.200Z,4.34
2023-02-22T05:31:44.760Z,4.36
2023-02-22T05:34:14.530Z,4.34
2023-02-22T05:36:42.976Z,4.48
2023-02-22T05:39:12.230Z,4.46
2023-02-22T05:41:40.655Z,4.47
2023-02-22T05:44:09.072Z,4.51
2023-02-22T05:46:39.001Z,4.52
2023-02-22T05:49:07.705Z,4.38
2023-02-22T05:51:36.146Z,4.46
2023-02-22T05:54:04.937Z,4.42
2023-02-22T05:56:33.560Z,4.51
2023-02-22T05:59:02.169Z,4.31
2023-02-22T06:01:30.519Z,4.45
2023-02-22T06:04:00.356Z,4.48
2023-02-22T06:06:28.773Z,4.57
2023-02-22T06:08:57.243Z,4.61
2023-02-22T06:11:25.676Z,4.48
2023-02-22T06:13:55.065Z,4.42
2023-02-22T06:16:24.158Z,4.47
2023-02-22T06:18:52.722Z,4.49
2023-02-22T06:21:22.620Z,4.46
2023-02-22T06:23:51.152Z,4.48
2023-02-22T06:26:21.155Z,4.41
2023-02-22T06:28:50.300Z,4.44
2023-02-22T06:31:19.130Z,4.49
2023-02-22T06:33:47.833Z,4.43
2023-02-22T06:36:16.428Z,4.40
2023-02-22T06:38:46.319Z,4.20
2023-02-22T06:41:15.841Z,4.29
2023-02-22T06:43:44.537Z,4.27
2023-02-22T06:46:14.048Z,4.41
2023-02-22T06:48:43.097Z,4.41
2023-02-22T06:51:11.917Z,4.22
2023-02-22T06:53:40.410Z,4.48
2023-02-22T06:56:10.432Z,4.54
2023-02-22T06:58:39.022Z,4.51
2023-02-22T07:01:08.332Z,4.26
2023-02-22T07:03:37.116Z,4.52
2023-02-22T07:06:08.306Z,4.52
2023-02-22T07:08:36.740Z,4.52
2023-02-22T07:11:05.653Z,4.56
2023-02-22T07:13:35.455Z,4.48
2023-02-22T07:16:03.962Z,4.54
2023-02-22T07:18:32.706Z,4.51
2023-02-22T07:21:01.396Z,4.61
2023-02-22T07:23:29.951Z,4.66
2023-02-22T07:26:01.569Z,4.71
2023-02-22T07:28:30.156Z,4.82
2023-02-22T07:31:01.464Z,4.76
2023-02-22T07:33:30.020Z,4.76
2023-02-22T07:35:58.558Z,4.82
2023-02-22T07:38:27.103Z,4.89
2023-02-22T07:40:57.855Z,4.89
2023-02-22T07:43:27.801Z,4.88
2023-02-22T07:46:00.797Z,5.05
2023-02-22T07:48:31.852Z,5.02
2023-02-22T07:51:00.760Z,5.07
2023-02-22T07:53:33.399Z,5.06
2023-02-22T07:56:05.181Z,5.19
2023-02-22T07:58:35.472Z,5.33
2023-02-22T08:01:06.031Z,5.33
2023-02-22T08:03:38.224Z,5.30
2023-02-22T08:06:09.267Z,5.50
2023-02-22T08:08:38.209Z,5.53
2023-02-22T08:11:06.882Z,5.40
2023-02-22T08:13:37.173Z,5.60
2023-02-22T08:16:07.584Z,5.66
2023-02-22T08:18:38.430Z,5.79
2023-02-22T08:21:07.244Z,5.83
2023-02-22T08:23:36.052Z,5.88
2023-02-22T08:26:10.893Z,5.84
2023-02-22T08:28:39.467Z,5.89
2023-02-22T08:31:09.678Z,6.09
2023-02-22T08:33:38.077Z,5.85
2023-02-22T08:36:09.835Z,6.03
2023-02-22T08:38:38.406Z,6.09
2023-02-22T08:41:06.951Z,6.16
2023-02-22T08:43:35.716Z,6.25
2023-02-22T08:46:04.192Z,6.27
2023-02-22T08:48:34.142Z,6.33
2023-02-22T08:51:02.974Z,6.41
2023-02-22T08:53:33.232Z,6.39
2023-02-22T08:56:01.680Z,6.31
2023-02-22T08:58:30.100Z,6.48
2023-02-22T09:00:58.531Z,6.39
2023-02-22T09:03:27.213Z,6.56
2023-02-22T09:05:59.549Z,6.61
2023-02-22T09:08:28.214Z,6.86
2023-02-22T09:10:56.677Z,6.94
2023-02-22T09:13:25.151Z,7.04
2023-02-22T09:15:53.561Z,7.17
2023-02-22T09:18:21.999Z,7.23
2023-02-22T09:20:50.397Z,7.31
2023-02-22T09:23:21.733Z,7.48
2023-02-22T09:25:50.765Z,7.57
2023-02-22T09:28:19.542Z,7.54
2023-02-22T09:30:48.313Z,7.69
2023-02-22T09:33:20.185Z,7.69
2023-02-22T09:35:50.874Z,7.77
2023-02-22T09:38:24.876Z,7.46
2023-02-22T09:41:02.980Z,7.63
2023-02-22T09:43:42.997Z,7.51
2023-02-22T09:46:24.362Z,7.72
2023-02-22T09:49:03.562Z,7.58
2023-02-22T09:51:41.321Z,7.71
2023-02-22T09:54:23.119Z,7.78
2023-02-22T09:56:57.968Z,7.78
2023-02-22T09:59:32.911Z,7.88
2023-02-22T10:02:15.105Z,8.05
2023-02-22T10:04:49.963Z,8.11
2023-02-22T10:07:26.151Z,7.99
2023-02-22T10:09:58.570Z,7.98
2023-02-22T10:12:38.506Z,7.79
2023-02-22T10:15:37.145Z,7.98
2023-02-22T10:18:37.225Z,8.00
2023-02-22T10:21:14.886Z,8.01
2023-02-22T10:23:56.460Z,7.99
2023-02-22T10:26:30.654Z,7.97
2023-02-22T10:29:04.837Z,8.19
2023-02-22T10:31:38.373Z,8.07
2023-02-22T10:34:15.390Z,8.08
2023-02-22T10:36:45.097Z,7.91
2023-02-22T10:39:27.377Z,8.09
2023-02-22T10:42:06.182Z,8.04
2023-02-22T10:44:35.179Z,7.62
2023-02-22T10:47:07.176Z,7.43
2023-02-22T10:49:41.286Z,7.47
2023-02-22T10:52:19.490Z,7.38
2023-02-22T10:54:51.827Z,7.45
2023-02-22T10:57:26.561Z,7.73
2023-02-22T10:59:57.927Z,7.85
2023-02-22T11:02:31.306Z,7.78
2023-02-22T11:05:02.265Z,7.69
2023-02-22T11:07:33.284Z,7.91
2023-02-22T11:10:05.009Z,7.99
2023-02-22T11:12:37.614Z,8.13
2023-02-22T11:15:30.078Z,8.18
2023-02-22T11:18:01.888Z,8.11
2023-02-22T11:20:35.492Z,8.15
2023-02-22T11:23:08.208Z,8.05
2023-02-22T11:25:40.218Z,8.26
2023-02-22T11:28:17.634Z,8.03
2023-02-22T11:30:52.182Z,8.12
2023-02-22T11:33:24.870Z,8.32
2023-02-22T11:35:55.744Z,8.40
2023-02-22T11:38:26.650Z,8.25
2023-02-22T11:41:16.797Z,8.79
2023-02-22T11:43:52.354Z,9.05
2023-02-22T11:46:23.152Z,8.98
2023-02-22T11:49:01.616Z,9.21
2023-02-22T11:51:46.402Z,9.48
2023-02-22T11:54:46.300Z,9.76
2023-02-22T11:57:36.212Z,9.78
2023-02-22T12:00:24.649Z,9.79
2023-02-22T12:03:18.756Z,9.76
2023-02-22T12:06:03.150Z,9.92
2023-02-22T12:08:52.301Z,9.84
2023-02-22T12:11:28.813Z,9.86
2023-02-22T12:14:12.956Z,9.92
2023-02-22T12:17:06.522Z,9.85
2023-02-22T12:19:39.119Z,9.82
2023-02-22T12:22:14.461Z,9.88
2023-02-22T12:24:48.918Z,9.86
2023-02-22T12:27:27.378Z,9.94
2023-02-22T12:30:04.449Z,9.80
2023-02-22T12:32:42.680Z,9.92
